createdAt,value
2019-04-06T00:03:01.645Z,72.93
2019-04-06T00:07:10.453Z,64.00
2019-04-06T00:11:19.267Z,62.50
2019-04-06T00:15:27.747Z,63.63
2019-04-06T00:19:36.231Z,70.03
2019-04-06T00:23:44.773Z,67.70
2019-04-06T00:27:53.589Z,63.43
2019-04-06T00:32:03.699Z,71.90
2019-04-06T00:36:12.471Z,65.63
2019-04-06T00:40:20.973Z,70.17
2019-04-06T00:44:29.505Z,74.40
2019-04-06T00:48:38.358Z,63.90
2019-04-06T00:52:46.837Z,65.43
2019-04-06T00:56:55.318Z,67.53
2019-04-06T01:01:04.402Z,72.53
2019-04-06T01:05:12.950Z,67.23
2019-04-06T01:09:21.687Z,64.23
2019-04-06T01:13:30.234Z,71.30
2019-04-06T01:17:38.720Z,57.90
2019-04-06T01:21:47.159Z,64.47
2019-04-06T01:26:06.306Z,73.90
2019-04-06T01:30:08.141Z,73.73
2019-04-06T01:34:16.610Z,68.03
2019-04-06T01:38:25.139Z,62.63
2019-04-06T01:42:33.609Z,67.47
2019-04-06T01:46:42.082Z,60.27
2019-04-06T01:50:50.534Z,67.87
2019-04-06T01:54:59.250Z,62.70
2019-04-06T01:59:07.889Z,76.03
2019-04-06T02:03:16.431Z,66.27
2019-04-06T02:07:25.289Z,61.73
2019-04-06T02:11:33.858Z,66.10
2019-04-06T02:15:42.413Z,69.20
2019-04-06T02:19:50.879Z,64.33
2019-04-06T02:23:59.375Z,63.90
2019-04-06T02:28:08.110Z,55.67
2019-04-06T02:32:23.969Z,71.80
2019-04-06T02:36:43.087Z,65.10
2019-04-06T02:41:05.251Z,64.10
2019-04-06T02:45:14.000Z,63.37
2019-04-06T02:49:22.621Z,70.17
2019-04-06T02:53:31.123Z,59.87
2019-04-06T02:57:39.645Z,65.50
2019-04-06T03:01:48.654Z,62.33
2019-04-06T03:05:57.246Z,69.12
2019-04-06T03:10:06.646Z,72.80
2019-04-06T03:14:15.618Z,66.90
2019-04-06T03:18:24.071Z,60.30
2019-04-06T03:22:32.585Z,56.43
2019-04-06T03:26:41.112Z,67.67
2019-04-06T03:30:49.657Z,73.33
2019-04-06T03:34:58.929Z,73.47
2019-04-06T03:39:07.592Z,64.17
2019-04-06T03:43:16.076Z,59.70
2019-04-06T03:47:24.652Z,57.77
2019-04-06T03:51:33.136Z,59.27
2019-04-06T03:55:41.616Z,74.70
2019-04-06T03:59:50.057Z,63.50
2019-04-06T04:03:59.095Z,69.90
2019-04-06T04:08:07.829Z,65.40
2019-04-06T04:12:16.607Z,61.90
2019-04-06T04:16:25.377Z,71.07
2019-04-06T04:20:34.183Z,71.80
2019-04-06T04:24:42.761Z,82.03
2019-04-06T04:28:51.257Z,73.13
2019-04-06T04:32:59.837Z,80.67
2019-04-06T04:37:08.347Z,69.17
2019-04-06T04:41:17.565Z,68.57
2019-04-06T04:45:26.215Z,64.27
2019-04-06T04:49:34.847Z,67.27
2019-04-06T04:53:43.398Z,79.03
2019-04-06T04:57:52.127Z,71.93
2019-04-06T05:02:00.613Z,70.20
2019-04-06T05:06:09.113Z,68.77
2019-04-06T05:10:17.619Z,67.70
2019-04-06T05:14:54.998Z,69.30
2019-04-06T05:19:03.488Z,66.40
2019-04-06T05:23:12.032Z,70.70
2019-04-06T05:27:20.491Z,61.07
2019-04-06T05:31:29.133Z,75.67
2019-04-06T05:35:37.817Z,76.87
2019-04-06T05:39:46.371Z,72.53
2019-04-06T05:43:54.888Z,85.77
2019-04-06T05:48:03.642Z,74.90
2019-04-06T05:52:12.087Z,67.67
2019-04-06T05:56:20.568Z,69.67
2019-04-06T06:00:29.049Z,71.73
2019-04-06T06:04:40.249Z,82.60
2019-04-06T06:08:47.802Z,78.67
2019-04-06T06:12:56.259Z,71.10
2019-04-06T06:17:04.744Z,71.07
2019-04-06T06:21:13.364Z,62.80
2019-04-06T06:25:21.880Z,63.50
2019-04-06T06:29:30.375Z,69.30
2019-04-06T06:33:38.873Z,75.80
2019-04-06T06:37:47.619Z,71.47
2019-04-06T06:41:56.380Z,76.73
2019-04-06T06:46:05.603Z,69.53
2019-04-06T06:50:14.206Z,75.43
2019-04-06T06:54:22.717Z,64.87
2019-04-06T06:58:31.289Z,55.10
2019-04-06T07:02:39.743Z,72.40
2019-04-06T07:06:48.349Z,59.57
2019-04-06T07:10:56.963Z,63.37
2019-04-06T07:15:07.558Z,61.97
2019-04-06T07:19:17.130Z,47.67
2019-04-06T07:23:25.893Z,49.87
2019-04-06T07:27:34.698Z,55.63
2019-04-06T07:31:43.253Z,62.30
2019-04-06T07:35:52.008Z,54.67
2019-04-06T07:40:00.544Z,60.87
2019-04-06T07:44:09.020Z,58.27
2019-04-06T07:48:17.688Z,52.27
2019-04-06T07:52:26.208Z,48.10
2019-04-06T07:56:34.774Z,51.53
2019-04-06T08:00:43.251Z,49.93
2019-04-06T08:04:51.717Z,50.37
2019-04-06T08:09:00.198Z,43.80
2019-04-06T08:13:08.671Z,53.73
2019-04-06T08:17:17.528Z,47.47
2019-04-06T08:21:26.016Z,47.63
2019-04-06T08:25:34.886Z,55.63
2019-04-06T08:29:43.415Z,48.83
2019-04-06T08:33:51.934Z,49.10
2019-04-06T08:38:00.428Z,37.47
2019-04-06T08:42:08.970Z,45.17
2019-04-06T08:46:17.729Z,40.63
2019-04-06T08:50:26.453Z,46.73
2019-04-06T08:54:34.940Z,45.00
2019-04-06T08:59:11.249Z,38.00
2019-04-06T09:03:13.336Z,41.70
2019-04-06T09:07:22.277Z,42.97
2019-04-06T09:11:30.741Z,40.67
2019-04-06T09:15:39.247Z,41.20
2019-04-06T09:19:48.443Z,37.00
2019-04-06T09:23:58.311Z,49.13
2019-04-06T09:28:07.128Z,40.17
2019-04-06T09:32:15.614Z,41.00
2019-04-06T09:36:24.131Z,41.20
2019-04-06T09:40:32.634Z,45.13
2019-04-06T09:44:45.742Z,43.00
2019-04-06T09:48:56.033Z,40.13
2019-04-06T09:53:12.268Z,41.80
2019-04-06T09:57:25.070Z,45.70
2019-04-06T10:01:38.945Z,44.50
2019-04-06T10:06:03.789Z,38.98
2019-04-06T10:10:23.731Z,46.33
2019-04-06T10:14:39.888Z,40.40
2019-04-06T10:18:50.056Z,46.70
2019-04-06T10:23:00.567Z,36.90
2019-04-06T10:27:19.722Z,43.07
2019-04-06T10:31:39.011Z,37.60
2019-04-06T10:36:14.756Z,39.23
2019-04-06T10:40:40.152Z,41.90
2019-04-06T10:44:53.050Z,43.60
2019-04-06T10:49:09.010Z,40.60
2019-04-06T10:53:19.138Z,46.13
2019-04-06T10:57:38.015Z,42.57
2019-04-06T11:01:50.767Z,39.87
2019-04-06T11:06:04.144Z,40.20
2019-04-06T11:10:20.607Z,47.50
2019-04-06T11:14:31.141Z,43.10
2019-04-06T11:18:56.782Z,37.43
2019-04-06T11:23:12.731Z,38.07
2019-04-06T11:27:34.991Z,33.60
2019-04-06T11:31:51.019Z,40.73
2019-04-06T11:36:07.219Z,43.47
2019-04-06T11:40:35.480Z,43.10
2019-04-06T11:44:52.085Z,48.70
2019-04-06T11:49:07.994Z,42.33
2019-04-06T11:53:27.275Z,34.50
2019-04-06T11:57:49.818Z,34.33
2019-04-06T12:02:02.829Z,38.43
2019-04-06T12:06:15.827Z,38.87
2019-04-06T12:10:25.936Z,38.40
2019-04-06T12:14:38.990Z,35.83
2019-04-06T12:18:49.102Z,42.13
2019-04-06T12:23:15.654Z,36.70
2019-04-06T12:27:42.360Z,40.43
2019-04-06T12:31:52.557Z,39.70
2019-04-06T12:36:08.878Z,39.53
2019-04-06T12:40:21.888Z,41.10
2019-04-06T12:44:38.006Z,37.67
2019-04-06T12:48:56.800Z,42.53
2019-04-06T12:53:16.145Z,45.60
2019-04-06T12:57:41.878Z,41.67
2019-04-06T13:01:55.699Z,36.80
2019-04-06T13:06:22.567Z,35.97
2019-04-06T13:10:32.668Z,38.63
2019-04-06T13:14:57.860Z,38.77
2019-04-06T13:19:24.436Z,39.40
2019-04-06T13:23:34.526Z,39.60
2019-04-06T13:27:44.676Z,43.03
2019-04-06T13:31:57.372Z,40.13
2019-04-06T13:36:13.487Z,43.67
2019-04-06T13:40:29.885Z,40.80
2019-04-06T13:44:40.275Z,35.77
2019-04-06T13:49:07.025Z,42.30
2019-04-06T13:53:29.219Z,41.50
2019-04-06T13:57:39.367Z,39.63
2019-04-06T14:01:49.478Z,41.23
2019-04-06T14:06:11.992Z,40.70
2019-04-06T14:10:25.625Z,42.40
2019-04-06T14:14:41.476Z,39.50
2019-04-06T14:19:10.940Z,39.27
2019-04-06T14:23:21.201Z,45.63
2019-04-06T14:27:34.439Z,46.97
2019-04-06T14:31:44.565Z,41.13
2019-04-06T14:35:57.627Z,50.50
2019-04-06T14:40:25.492Z,49.90
2019-04-06T14:44:41.789Z,48.57
2019-04-06T14:49:17.223Z,45.13
2019-04-06T14:53:19.249Z,48.93
2019-04-06T14:57:48.039Z,52.30
2019-04-06T15:01:59.642Z,44.33
2019-04-06T15:06:28.439Z,48.30
2019-04-06T15:10:38.557Z,51.47
2019-04-06T15:14:48.737Z,51.97
2019-04-06T15:18:59.253Z,53.13
2019-04-06T15:23:09.375Z,51.77
2019-04-06T15:27:22.221Z,49.77
2019-04-06T15:31:35.154Z,49.80
2019-04-06T15:36:03.513Z,46.77
2019-04-06T15:40:13.676Z,46.00
2019-04-06T15:44:26.494Z,48.87
2019-04-06T15:48:52.620Z,45.17
2019-04-06T15:53:21.067Z,44.07
2019-04-06T15:57:33.914Z,38.20
2019-04-06T16:01:44.041Z,32.03
2019-04-06T16:05:57.755Z,34.03
2019-04-06T16:10:08.872Z,34.07
2019-04-06T16:14:27.888Z,31.03
2019-04-06T16:18:54.412Z,30.60
2019-04-06T16:23:20.796Z,30.20
2019-04-06T16:27:30.976Z,32.50
2019-04-06T16:31:41.142Z,32.53
2019-04-06T16:35:54.572Z,28.27
2019-04-06T16:40:17.412Z,31.30
2019-04-06T16:44:29.999Z,27.00
2019-04-06T16:48:56.901Z,26.60
2019-04-06T16:53:07.178Z,28.80
2019-04-06T16:57:17.304Z,27.87
2019-04-06T17:01:30.888Z,34.97
2019-04-06T17:05:59.282Z,31.03
2019-04-06T17:10:16.023Z,29.70
2019-04-06T17:14:42.763Z,33.50
2019-04-06T17:23:46.676Z,36.60
2019-04-06T17:28:06.044Z,46.03
2019-04-06T17:32:33.966Z,37.40
2019-04-06T17:36:39.430Z,34.53
2019-04-06T17:40:49.892Z,35.73
2019-04-06T17:45:00.234Z,42.37
2019-04-06T17:49:10.628Z,40.90
2019-04-06T17:53:29.475Z,39.67
2019-04-06T17:57:39.586Z,38.90
2019-04-06T18:01:57.137Z,36.63
2019-04-06T18:06:19.056Z,39.67
2019-04-06T18:10:45.263Z,42.37
2019-04-06T18:14:54.116Z,45.90
2019-04-06T18:19:02.688Z,43.95
2019-04-06T18:23:11.178Z,45.17
2019-04-06T18:27:19.675Z,49.10
2019-04-06T18:31:48.319Z,42.53
2019-04-06T18:35:57.351Z,50.60
2019-04-06T18:40:09.351Z,53.27
2019-04-06T18:44:17.839Z,50.37
2019-04-06T18:48:26.323Z,49.63
2019-04-06T18:52:35.014Z,57.40
2019-04-06T18:56:43.926Z,53.20
2019-04-06T19:00:52.599Z,51.67
2019-04-06T19:05:01.060Z,52.90
2019-04-06T19:09:20.667Z,58.10
2019-04-06T19:13:20.561Z,52.77
2019-04-06T19:17:29.255Z,49.77
2019-04-06T19:21:38.053Z,59.00
2019-04-06T19:25:46.538Z,50.83
2019-04-06T19:29:55.233Z,55.23
2019-04-06T19:34:03.788Z,54.50
2019-04-06T19:38:12.388Z,54.87
2019-04-06T19:42:21.521Z,68.70
2019-04-06T19:46:30.030Z,60.17
2019-04-06T19:50:38.518Z,63.87
2019-04-06T19:54:47.089Z,62.10
2019-04-06T19:58:55.586Z,57.13
2019-04-06T20:03:04.341Z,51.93
2019-04-06T20:07:12.883Z,54.57
2019-04-06T20:11:22.064Z,66.85
2019-04-06T20:15:30.979Z,62.20
2019-04-06T20:19:39.474Z,70.47
2019-04-06T20:23:48.335Z,59.63
2019-04-06T20:27:56.933Z,62.17
2019-04-06T20:32:05.574Z,69.17
2019-04-06T20:36:14.571Z,58.70
2019-04-06T20:40:23.374Z,61.07
2019-04-06T20:44:32.415Z,63.97
2019-04-06T20:48:41.180Z,69.00
2019-04-06T20:52:50.401Z,66.30
2019-04-06T20:56:59.318Z,73.27
2019-04-06T21:01:07.902Z,68.87
2019-04-06T21:05:16.734Z,75.97
2019-04-06T21:09:25.805Z,69.70
2019-04-06T21:13:34.381Z,72.10
2019-04-06T21:17:42.846Z,65.13
2019-04-06T21:21:51.974Z,75.10
2019-04-06T21:26:00.636Z,74.63
2019-04-06T21:30:10.776Z,76.87
2019-04-06T21:34:19.461Z,74.03
2019-04-06T21:38:28.379Z,72.63
2019-04-06T21:42:37.631Z,73.17
2019-04-06T21:46:46.268Z,71.40
2019-04-06T21:50:54.890Z,79.77
2019-04-06T21:55:04.921Z,74.47
2019-04-06T21:59:15.803Z,72.73
2019-04-06T22:03:23.682Z,70.37
2019-04-06T22:07:32.441Z,77.80
2019-04-06T22:11:40.969Z,62.57
2019-04-06T22:15:49.414Z,74.80
2019-04-06T22:19:58.133Z,78.78
2019-04-06T22:24:06.771Z,79.13
2019-04-06T22:28:15.328Z,69.10
2019-04-06T22:32:24.478Z,71.23
2019-04-06T22:36:33.011Z,74.03
2019-04-06T22:40:41.892Z,76.57
2019-04-06T22:44:51.092Z,76.80
2019-04-06T22:49:00.146Z,71.80
2019-04-06T22:53:08.786Z,65.78
2019-04-06T22:57:17.320Z,72.97
2019-04-06T23:01:27.859Z,68.60
2019-04-06T23:05:40.718Z,67.30
2019-04-06T23:09:49.370Z,84.17
2019-04-06T23:13:58.105Z,74.43
2019-04-06T23:18:07.068Z,73.13
2019-04-06T23:22:15.850Z,65.00
2019-04-06T23:26:25.018Z,79.67
2019-04-06T23:30:33.952Z,73.90
2019-04-06T23:34:43.069Z,65.40
2019-04-06T23:38:52.092Z,62.67
2019-04-06T23:43:00.590Z,76.67
2019-04-06T23:47:09.066Z,62.53
2019-04-06T23:51:17.872Z,71.47
2019-04-06T23:55:26.329Z,65.10
2019-04-06T23:59:35.154Z,71.50
